Time;durP1;ratioP1;P1;durP2;ratioP2;P2;SDS_P1;SDS_P2;PMS_P1;PMS_P2;Temp;Humidity;BMP_temperature;BMP_pressure;BME280_temperature;BME280_humidity;BME280_pressure;Samples;Min_cycle;Max_cycle;Signal;HPM_P1;HPM_P2
2023/06/08 00:01:53;;;;;;;2.30;2.17;;;;;;;;;;5049579;28;20188;-75
2023/06/08 00:04:18;;;;;;;2.30;2.20;;;;;;;;;;5070707;28;20305;-75
2023/06/08 00:06:44;;;;;;;2.40;2.20;;;;;;;;;;5052118;28;20227;-75
2023/06/08 00:09:09;;;;;;;2.40;2.20;;;;;;;;;;5069881;28;20214;-74
2023/06/08 00:11:35;;;;;;;2.20;2.10;;;;;;;;;;5072257;28;20182;-75
2023/06/08 00:14:00;;;;;;;2.33;2.13;;;;;;;;;;5072666;28;20178;-75
2023/06/08 00:16:27;;;;;;;2.60;2.40;;;;;;;;;;5056484;28;20239;-75
2023/06/08 00:18:56;;;;;;;2.27;1.97;;;;;;;;;;5053329;28;20192;-75
2023/06/08 00:21:22;;;;;;;3.27;2.43;;;;;;;;;;5052426;28;20194;-75
2023/06/08 00:23:48;;;;;;;2.60;2.40;;;;;;;;;;5068459;28;20202;-74
2023/06/08 00:26:13;;;;;;;3.37;2.17;;;;;;;;;;5069292;28;20224;-75
2023/06/08 00:28:38;;;;;;;2.70;2.50;;;;;;;;;;5050113;28;20213;-75
2023/06/08 00:31:04;;;;;;;2.57;2.37;;;;;;;;;;5070764;28;20171;-75
2023/06/08 00:33:29;;;;;;;2.73;2.53;;;;;;;;;;5050922;28;20227;-75
2023/06/08 00:35:54;;;;;;;2.63;2.43;;;;;;;;;;5072896;28;20173;-75
2023/06/08 00:38:20;;;;;;;2.80;2.60;;;;;;;;;;5073879;28;20174;-75
2023/06/08 00:40:45;;;;;;;2.23;2.07;;;;;;;;;;5047708;28;20212;-75
2023/06/08 00:43:10;;;;;;;2.73;2.53;;;;;;;;;;5052577;28;20187;-75
2023/06/08 00:45:35;;;;;;;2.90;2.70;;;;;;;;;;5053342;28;20229;-74
2023/06/08 00:48:02;;;;;;;5.37;2.90;;;;;;;;;;5065581;28;20196;-75
2023/06/08 00:50:30;;;;;;;2.33;2.13;;;;;;;;;;5050833;28;20172;-75
2023/06/08 00:52:55;;;;;;;2.63;2.43;;;;;;;;;;5051272;28;20171;-75
2023/06/08 00:55:21;;;;;;;2.33;2.13;;;;;;;;;;5064519;28;20239;-75
2023/06/08 00:57:47;;;;;;;3.97;2.80;;;;;;;;;;5070668;28;20235;-74
2023/06/08 01:00:13;;;;;;;2.40;2.20;;;;;;;;;;5072313;28;20267;-75
2023/06/08 01:02:41;;;;;;;2.67;2.20;;;;;;;;;;5073308;28;20174;-75
2023/06/08 01:05:07;;;;;;;3.03;2.23;;;;;;;;;;5071037;28;20225;-75
2023/06/08 01:07:49;;;;;;;2.73;2.40;;;;;;;;;;5054499;28;20198;-75
2023/06/08 01:10:29;;;;;;;2.47;2.27;;;;;;;;;;5046359;28;20230;-75
2023/06/08 01:13:00;;;;;;;7.90;2.77;;;;;;;;;;5076344;28;20176;-75
2023/06/08 01:15:33;;;;;;;2.50;2.30;;;;;;;;;;5069983;28;20173;-75
2023/06/08 01:18:04;;;;;;;2.80;2.60;;;;;;;;;;5054608;28;20204;-75
2023/06/08 01:20:49;;;;;;;4.10;3.00;;;;;;;;;;5071497;28;20185;-75
2023/06/08 01:23:20;;;;;;;2.50;2.30;;;;;;;;;;5066515;28;20180;-75
2023/06/08 01:25:48;;;;;;;2.73;2.53;;;;;;;;;;5066884;28;20189;-75
2023/06/08 01:28:13;;;;;;;2.63;2.43;;;;;;;;;;5069746;28;20196;-75
2023/06/08 01:30:45;;;;;;;3.30;3.00;;;;;;;;;;5071899;28;20178;-75
2023/06/08 01:33:20;;;;;;;3.70;2.87;;;;;;;;;;5064146;28;20175;-75
2023/06/08 01:35:51;;;;;;;2.97;2.77;;;;;;;;;;5065904;28;20275;-75
2023/06/08 01:38:27;;;;;;;3.10;2.90;;;;;;;;;;5054629;28;20189;-74
2023/06/08 01:40:55;;;;;;;3.00;2.70;;;;;;;;;;5065725;28;20203;-74
2023/06/08 01:43:20;;;;;;;2.50;2.30;;;;;;;;;;5058903;28;20245;-75
2023/06/08 01:45:47;;;;;;;3.00;2.80;;;;;;;;;;5052620;28;20179;-75
2023/06/08 01:48:13;;;;;;;2.67;2.40;;;;;;;;;;5052792;28;20298;-75
2023/06/08 01:50:39;;;;;;;2.97;2.67;;;;;;;;;;5055307;28;20197;-75
2023/06/08 01:53:05;;;;;;;2.97;2.77;;;;;;;;;;5068984;28;20306;-74
2023/06/08 01:55:30;;;;;;;4.10;3.10;;;;;;;;;;5052663;28;20219;-75
2023/06/08 01:57:56;;;;;;;5.23;3.20;;;;;;;;;;5074731;28;20200;-74
2023/06/08 02:00:21;;;;;;;3.50;3.23;;;;;;;;;;5053734;28;20187;-75
2023/06/08 02:02:47;;;;;;;3.57;3.37;;;;;;;;;;5074204;28;20182;-75
2023/06/08 02:05:13;;;;;;;3.10;2.90;;;;;;;;;;5053785;28;20310;-75
2023/06/08 02:07:39;;;;;;;4.00;3.30;;;;;;;;;;5054948;28;20245;-74
2023/06/08 02:10:05;;;;;;;3.83;3.10;;;;;;;;;;5056182;28;20179;-75
2023/06/08 02:12:30;;;;;;;3.60;3.30;;;;;;;;;;5062009;28;20267;-75
2023/06/08 02:14:56;;;;;;;3.30;3.10;;;;;;;;;;5073463;28;20183;-75
2023/06/08 02:17:26;;;;;;;3.93;3.63;;;;;;;;;;5051259;28;20176;-75
2023/06/08 02:19:51;;;;;;;4.40;3.70;;;;;;;;;;5059134;28;20193;-74
2023/06/08 02:22:17;;;;;;;3.90;3.60;;;;;;;;;;5070207;28;20178;-74
2023/06/08 02:24:42;;;;;;;4.20;3.90;;;;;;;;;;5051962;28;20176;-74
2023/06/08 02:27:08;;;;;;;4.90;3.90;;;;;;;;;;5068464;28;20236;-74
2023/06/08 02:29:35;;;;;;;4.40;4.00;;;;;;;;;;5072299;28;20201;-74
2023/06/08 02:32:00;;;;;;;4.20;3.90;;;;;;;;;;5067840;28;20249;-74
2023/06/08 02:34:25;;;;;;;3.80;3.53;;;;;;;;;;5053631;28;20261;-74
2023/06/08 02:36:50;;;;;;;3.73;3.43;;;;;;;;;;5067502;28;20256;-74
2023/06/08 02:39:16;;;;;;;4.00;3.60;;;;;;;;;;5050769;28;20182;-74
2023/06/08 02:41:41;;;;;;;3.77;3.47;;;;;;;;;;5052835;28;20177;-74
2023/06/08 02:44:06;;;;;;;4.37;3.20;;;;;;;;;;5072885;28;20184;-74
2023/06/08 02:46:32;;;;;;;4.10;3.77;;;;;;;;;;5072183;28;20206;-74
2023/06/08 02:48:58;;;;;;;3.80;3.50;;;;;;;;;;5068466;28;20233;-74
2023/06/08 02:51:23;;;;;;;3.30;3.10;;;;;;;;;;5070686;28;20183;-74
2023/06/08 02:53:48;;;;;;;4.57;3.97;;;;;;;;;;5065329;28;20170;-74
2023/06/08 02:56:13;;;;;;;3.70;3.40;;;;;;;;;;5055489;28;20185;-75
2023/06/08 02:58:41;;;;;;;3.40;3.20;;;;;;;;;;5051376;28;20200;-74
2023/06/08 03:01:14;;;;;;;3.20;2.90;;;;;;;;;;5072067;28;20209;-74
2023/06/08 03:03:39;;;;;;;3.50;3.20;;;;;;;;;;5063300;28;20166;-74
2023/06/08 03:06:05;;;;;;;5.43;3.63;;;;;;;;;;5063320;28;20228;-74
2023/06/08 03:08:30;;;;;;;4.87;3.80;;;;;;;;;;5065829;28;20346;-74
2023/06/08 03:10:55;;;;;;;4.00;3.20;;;;;;;;;;5050633;28;20179;-74
2023/06/08 03:13:21;;;;;;;3.10;2.77;;;;;;;;;;5066919;28;20178;-74
2023/06/08 03:15:47;;;;;;;3.10;2.90;;;;;;;;;;5049685;28;20265;-74
2023/06/08 03:18:12;;;;;;;3.40;3.10;;;;;;;;;;5053655;28;20193;-75
2023/06/08 03:20:40;;;;;;;3.47;3.27;;;;;;;;;;5047413;28;20228;-74
2023/06/08 03:23:05;;;;;;;3.30;3.00;;;;;;;;;;5070858;28;20178;-74
2023/06/08 03:25:31;;;;;;;3.97;3.07;;;;;;;;;;5047848;28;20182;-74
2023/06/08 03:27:56;;;;;;;3.37;3.07;;;;;;;;;;5045718;28;20186;-74
2023/06/08 03:30:21;;;;;;;3.10;2.80;;;;;;;;;;5065703;28;20177;-74
2023/06/08 03:32:48;;;;;;;3.00;2.80;;;;;;;;;;5067751;28;20177;-74
2023/06/08 03:35:15;;;;;;;3.50;3.20;;;;;;;;;;5049969;28;20178;-74
2023/06/08 03:37:40;;;;;;;3.23;2.93;;;;;;;;;;5049478;28;20197;-74
2023/06/08 03:40:08;;;;;;;3.43;2.90;;;;;;;;;;5051153;28;20174;-74
2023/06/08 03:42:33;;;;;;;3.57;3.30;;;;;;;;;;5050767;28;20179;-74
2023/06/08 03:44:58;;;;;;;3.20;2.93;;;;;;;;;;5052795;28;20235;-74
2023/06/08 03:47:23;;;;;;;2.80;2.60;;;;;;;;;;5062074;28;20209;-74
2023/06/08 03:49:49;;;;;;;2.87;2.67;;;;;;;;;;5048336;28;20213;-74
2023/06/08 03:52:14;;;;;;;3.30;3.00;;;;;;;;;;5063371;28;20174;-75
2023/06/08 03:54:39;;;;;;;3.47;3.10;;;;;;;;;;5066018;28;20173;-74
2023/06/08 03:57:06;;;;;;;2.97;2.77;;;;;;;;;;5048737;28;20201;-74
2023/06/08 03:59:31;;;;;;;3.03;2.77;;;;;;;;;;5069898;28;20180;-74
2023/06/08 04:01:56;;;;;;;3.00;2.70;;;;;;;;;;5061920;28;20186;-74
2023/06/08 04:04:23;;;;;;;3.00;2.80;;;;;;;;;;5068420;28;20225;-74
2023/06/08 04:06:49;;;;;;;3.03;2.73;;;;;;;;;;5048417;28;20182;-74
2023/06/08 04:09:14;;;;;;;3.53;3.30;;;;;;;;;;5068554;28;20266;-74
2023/06/08 04:11:40;;;;;;;3.00;2.80;;;;;;;;;;5047729;28;20179;-74
2023/06/08 04:14:05;;;;;;;3.07;2.83;;;;;;;;;;5051058;28;20196;-74
2023/06/08 04:16:31;;;;;;;3.20;2.90;;;;;;;;;;5067207;28;20276;-74
2023/06/08 04:18:56;;;;;;;4.20;3.20;;;;;;;;;;5069514;28;20308;-74
2023/06/08 04:21:25;;;;;;;2.73;2.53;;;;;;;;;;5050559;28;20189;-74
2023/06/08 04:23:50;;;;;;;3.53;3.33;;;;;;;;;;5069910;28;20174;-74
2023/06/08 04:26:16;;;;;;;3.67;3.30;;;;;;;;;;5048105;28;20178;-74
2023/06/08 04:28:41;;;;;;;3.50;3.30;;;;;;;;;;5048457;28;20201;-74
2023/06/08 04:31:07;;;;;;;4.27;3.50;;;;;;;;;;5045909;28;20269;-74
2023/06/08 04:33:32;;;;;;;3.70;3.40;;;;;;;;;;5049392;28;20210;-74
2023/06/08 04:35:57;;;;;;;3.33;3.03;;;;;;;;;;5051455;28;20190;-74
2023/06/08 04:38:23;;;;;;;4.00;3.27;;;;;;;;;;5070582;28;20237;-74
2023/06/08 04:40:49;;;;;;;5.23;4.03;;;;;;;;;;5053742;28;20276;-74
2023/06/08 04:43:15;;;;;;;8.23;7.43;;;;;;;;;;5071209;28;20175;-74
2023/06/08 04:45:46;;;;;;;8.23;6.13;;;;;;;;;;5070697;28;20237;-74
2023/06/08 04:48:11;;;;;;;3.90;3.60;;;;;;;;;;5064416;28;20268;-74
2023/06/08 04:50:37;;;;;;;3.77;3.47;;;;;;;;;;5068332;28;20174;-74
2023/06/08 04:53:03;;;;;;;4.03;3.73;;;;;;;;;;5052944;28;20260;-74
2023/06/08 04:55:28;;;;;;;4.03;3.63;;;;;;;;;;5069776;28;20179;-74
2023/06/08 04:57:54;;;;;;;3.67;3.37;;;;;;;;;;5076108;28;20281;-74
2023/06/08 05:00:19;;;;;;;4.07;3.77;;;;;;;;;;5070852;28;20194;-74
2023/06/08 05:02:44;;;;;;;3.70;3.40;;;;;;;;;;5067708;28;20258;-74
2023/06/08 05:05:09;;;;;;;3.60;3.30;;;;;;;;;;5069715;28;20272;-73
2023/06/08 05:07:35;;;;;;;3.77;3.47;;;;;;;;;;5068981;28;20229;-74
2023/06/08 05:10:01;;;;;;;4.00;3.13;;;;;;;;;;5069951;28;20267;-74
2023/06/08 05:12:27;;;;;;;4.00;3.70;;;;;;;;;;5053465;28;20181;-74
2023/06/08 05:14:52;;;;;;;4.97;3.60;;;;;;;;;;5073227;28;20178;-74
2023/06/08 05:17:17;;;;;;;4.27;3.90;;;;;;;;;;5069141;28;20177;-74
2023/06/08 05:19:43;;;;;;;6.40;4.53;;;;;;;;;;5071381;28;20175;-74
2023/06/08 05:22:08;;;;;;;3.97;3.60;;;;;;;;;;5071394;28;20273;-74
2023/06/08 05:24:33;;;;;;;3.90;3.60;;;;;;;;;;5071174;28;20352;-74
2023/06/08 05:26:58;;;;;;;4.07;3.70;;;;;;;;;;5050316;28;20182;-73
2023/06/08 05:29:23;;;;;;;4.33;3.83;;;;;;;;;;5069631;28;20199;-74
2023/06/08 05:31:49;;;;;;;5.03;3.93;;;;;;;;;;5056220;28;20185;-74
2023/06/08 05:34:15;;;;;;;4.40;4.00;;;;;;;;;;5071475;28;20198;-74
2023/06/08 05:36:40;;;;;;;4.07;3.67;;;;;;;;;;5053316;28;20211;-74
2023/06/08 05:39:05;;;;;;;4.73;3.60;;;;;;;;;;5069260;28;20182;-74
2023/06/08 05:41:31;;;;;;;3.83;3.53;;;;;;;;;;5077639;28;20182;-74
2023/06/08 05:43:56;;;;;;;4.00;3.60;;;;;;;;;;5068334;28;20178;-74
2023/06/08 05:46:21;;;;;;;3.87;3.57;;;;;;;;;;5069927;28;20194;-74
2023/06/08 05:48:46;;;;;;;4.17;3.77;;;;;;;;;;5050749;28;20222;-74
2023/06/08 05:51:11;;;;;;;4.33;3.93;;;;;;;;;;5051268;28;20271;-74
2023/06/08 05:53:38;;;;;;;3.70;3.40;;;;;;;;;;5070359;28;20174;-74
2023/06/08 05:56:03;;;;;;;4.00;3.63;;;;;;;;;;5055110;28;20178;-74
2023/06/08 05:58:28;;;;;;;7.73;4.20;;;;;;;;;;5072540;28;20293;-74
2023/06/08 06:00:54;;;;;;;4.60;4.17;;;;;;;;;;5068554;28;20187;-74
2023/06/08 06:03:19;;;;;;;5.60;4.50;;;;;;;;;;5067661;28;20181;-74
2023/06/08 06:05:45;;;;;;;4.67;4.23;;;;;;;;;;5051179;28;20258;-74
2023/06/08 06:08:10;;;;;;;5.47;4.00;;;;;;;;;;5051799;28;20215;-74
2023/06/08 06:10:35;;;;;;;4.57;4.17;;;;;;;;;;5070285;28;20176;-74
2023/06/08 06:13:00;;;;;;;5.53;4.40;;;;;;;;;;5071943;28;20206;-74
2023/06/08 06:15:26;;;;;;;5.00;4.13;;;;;;;;;;5071766;28;20238;-74
2023/06/08 06:17:52;;;;;;;4.43;4.03;;;;;;;;;;5073473;28;20184;-73
2023/06/08 06:20:17;;;;;;;9.67;4.70;;;;;;;;;;5049574;28;20181;-74
2023/06/08 06:22:42;;;;;;;4.63;4.10;;;;;;;;;;5053753;28;20185;-74
2023/06/08 06:25:07;;;;;;;9.27;4.07;;;;;;;;;;5075924;28;20176;-74
2023/06/08 06:27:33;;;;;;;4.30;3.90;;;;;;;;;;5061938;28;20204;-73
2023/06/08 06:29:58;;;;;;;5.80;4.20;;;;;;;;;;5046761;28;20208;-73
2023/06/08 06:32:23;;;;;;;4.00;3.70;;;;;;;;;;5068808;28;20162;-73
2023/06/08 06:34:48;;;;;;;4.37;3.97;;;;;;;;;;5071337;28;20181;-74
2023/06/08 06:37:14;;;;;;;4.37;3.97;;;;;;;;;;5053162;28;20207;-74
2023/06/08 06:39:39;;;;;;;4.23;3.80;;;;;;;;;;5070899;28;20189;-73
2023/06/08 06:42:05;;;;;;;5.30;3.87;;;;;;;;;;5076835;28;20185;-74
2023/06/08 06:44:30;;;;;;;4.40;4.00;;;;;;;;;;5053698;28;20177;-74
2023/06/08 06:46:56;;;;;;;5.37;4.87;;;;;;;;;;5073353;28;20197;-74
2023/06/08 06:49:21;;;;;;;4.53;4.13;;;;;;;;;;5047117;28;20189;-74
2023/06/08 06:51:46;;;;;;;4.70;4.30;;;;;;;;;;5046951;28;20184;-74
2023/06/08 06:54:11;;;;;;;4.37;3.97;;;;;;;;;;5051016;28;20180;-74
2023/06/08 06:56:39;;;;;;;4.67;4.23;;;;;;;;;;5065162;28;20203;-74
2023/06/08 06:59:05;;;;;;;5.70;4.07;;;;;;;;;;5053018;28;20194;-74
2023/06/08 07:01:35;;;;;;;3.83;3.53;;;;;;;;;;5054816;28;20184;-74
2023/06/08 07:04:00;;;;;;;5.47;4.07;;;;;;;;;;5077157;28;20190;-74
2023/06/08 07:06:26;;;;;;;4.43;4.03;;;;;;;;;;5069299;28;20199;-74
2023/06/08 07:08:51;;;;;;;3.80;3.50;;;;;;;;;;5071307;28;20296;-74
2023/06/08 07:11:16;;;;;;;5.03;3.77;;;;;;;;;;5071443;28;20176;-73
2023/06/08 07:13:42;;;;;;;4.50;4.10;;;;;;;;;;5045973;28;20180;-74
2023/06/08 07:16:07;;;;;;;4.50;3.70;;;;;;;;;;5067621;28;20181;-74
2023/06/08 07:18:32;;;;;;;4.10;3.70;;;;;;;;;;5052298;28;20255;-73
2023/06/08 07:20:57;;;;;;;3.60;3.30;;;;;;;;;;5069811;28;20185;-74
2023/06/08 07:23:23;;;;;;;3.97;3.67;;;;;;;;;;5073353;28;20176;-73
2023/06/08 07:25:48;;;;;;;4.80;3.60;;;;;;;;;;5076176;28;20265;-74
2023/06/08 07:28:14;;;;;;;4.50;3.77;;;;;;;;;;5070687;28;20196;-74
2023/06/08 07:30:39;;;;;;;3.90;3.60;;;;;;;;;;5052998;28;20173;-74
2023/06/08 07:33:04;;;;;;;3.97;3.40;;;;;;;;;;5059828;28;20184;-74
2023/06/08 07:35:29;;;;;;;3.73;3.23;;;;;;;;;;5073098;28;20197;-74
2023/06/08 07:37:55;;;;;;;3.73;3.43;;;;;;;;;;5071967;28;20185;-74
2023/06/08 07:40:20;;;;;;;3.93;3.63;;;;;;;;;;5080019;28;20180;-74
2023/06/08 07:42:46;;;;;;;3.27;3.07;;;;;;;;;;5048109;28;20208;-74
2023/06/08 07:45:11;;;;;;;3.60;3.30;;;;;;;;;;5067107;28;20241;-74
2023/06/08 07:47:38;;;;;;;3.50;3.20;;;;;;;;;;5080818;28;20178;-73
2023/06/08 07:50:04;;;;;;;3.83;3.23;;;;;;;;;;5060674;28;20201;-74
2023/06/08 07:52:29;;;;;;;3.33;3.07;;;;;;;;;;5073961;28;20174;-74
2023/06/08 07:54:54;;;;;;;3.77;3.47;;;;;;;;;;5052218;28;20184;-74
2023/06/08 07:57:20;;;;;;;3.43;3.13;;;;;;;;;;5064994;28;20197;-74
2023/06/08 07:59:45;;;;;;;4.13;3.83;;;;;;;;;;5072590;28;20186;-74
2023/06/08 08:02:10;;;;;;;3.57;3.27;;;;;;;;;;5052009;28;20212;-73
2023/06/08 08:04:36;;;;;;;3.30;3.10;;;;;;;;;;5051701;28;20228;-74
2023/06/08 08:07:01;;;;;;;3.77;3.40;;;;;;;;;;5071116;28;20187;-74
2023/06/08 08:09:26;;;;;;;4.07;3.40;;;;;;;;;;5049064;28;20196;-74
2023/06/08 08:11:51;;;;;;;4.17;3.87;;;;;;;;;;5050159;28;20180;-74
2023/06/08 08:14:17;;;;;;;5.77;5.20;;;;;;;;;;5064804;28;20180;-74
2023/06/08 08:16:42;;;;;;;4.10;3.70;;;;;;;;;;5054231;28;20355;-74
2023/06/08 08:19:07;;;;;;;3.80;3.50;;;;;;;;;;5070397;28;20189;-74
2023/06/08 08:21:32;;;;;;;3.60;3.30;;;;;;;;;;5069375;28;20185;-74
2023/06/08 08:23:57;;;;;;;3.53;3.23;;;;;;;;;;5048376;28;20192;-74
2023/06/08 08:26:23;;;;;;;3.80;3.50;;;;;;;;;;5071041;28;20183;-74
2023/06/08 08:28:48;;;;;;;5.17;3.80;;;;;;;;;;5071966;28;20273;-74
2023/06/08 08:31:13;;;;;;;3.80;3.50;;;;;;;;;;5051306;28;20199;-74
2023/06/08 08:33:38;;;;;;;3.80;3.33;;;;;;;;;;5073764;28;20172;-74
2023/06/08 08:36:04;;;;;;;4.13;3.73;;;;;;;;;;5053991;28;20187;-74
2023/06/08 08:38:29;;;;;;;3.78;3.40;;;;;;;;;;5054986;28;20191;-74
2023/06/08 08:41:01;;;;;;;3.43;3.13;;;;;;;;;;5069252;28;20172;-74
2023/06/08 08:43:33;;;;;;;3.87;3.57;;;;;;;;;;5072437;28;20177;-74
2023/06/08 08:45:59;;;;;;;3.80;3.50;;;;;;;;;;5052595;28;20189;-74
2023/06/08 08:48:26;;;;;;;4.07;3.60;;;;;;;;;;5073718;28;20200;-74
2023/06/08 08:50:53;;;;;;;3.83;3.53;;;;;;;;;;5055088;28;20188;-74
2023/06/08 08:53:20;;;;;;;4.40;3.77;;;;;;;;;;5076998;28;20219;-74
2023/06/08 08:55:48;;;;;;;8.67;3.97;;;;;;;;;;5057172;28;20180;-74
2023/06/08 08:58:14;;;;;;;3.80;3.40;;;;;;;;;;5051439;28;20309;-74
2023/06/08 09:00:40;;;;;;;4.07;3.72;;;;;;;;;;5072363;28;20250;-74
2023/06/08 09:03:05;;;;;;;3.95;3.65;;;;;;;;;;5077355;28;20205;-74
2023/06/08 09:05:30;;;;;;;4.00;3.42;;;;;;;;;;5050079;28;20304;-74
2023/06/08 09:07:56;;;;;;;3.83;3.50;;;;;;;;;;5065425;28;20208;-74
2023/06/08 09:10:25;;;;;;;3.80;3.50;;;;;;;;;;5069829;28;20174;-74
2023/06/08 09:12:51;;;;;;;13.32;4.13;;;;;;;;;;5049529;28;20242;-74
2023/06/08 09:15:37;;;;;;;3.63;3.33;;;;;;;;;;5061375;28;20181;-74
2023/06/08 09:18:14;;;;;;;5.27;4.17;;;;;;;;;;5062933;28;20178;-74
2023/06/08 09:20:39;;;;;;;3.80;3.50;;;;;;;;;;5067337;28;20192;-74
2023/06/08 09:23:24;;;;;;;5.07;3.77;;;;;;;;;;5049175;28;20179;-74
2023/06/08 09:25:51;;;;;;;3.77;3.47;;;;;;;;;;5053017;28;20184;-74
2023/06/08 09:28:18;;;;;;;4.50;3.47;;;;;;;;;;5071184;28;20229;-74
2023/06/08 09:30:44;;;;;;;3.77;3.47;;;;;;;;;;5064176;28;20173;-74
2023/06/08 09:33:26;;;;;;;4.82;3.80;;;;;;;;;;5041322;28;20250;-74
2023/06/08 09:35:57;;;;;;;3.95;3.63;;;;;;;;;;5052553;28;20188;-74
2023/06/08 09:38:25;;;;;;;3.97;3.67;;;;;;;;;;5062356;28;20181;-74
2023/06/08 09:40:51;;;;;;;5.28;4.70;;;;;;;;;;5065025;28;20190;-74
2023/06/08 09:43:32;;;;;;;8.10;4.68;;;;;;;;;;5047832;28;20177;-74
2023/06/08 09:45:58;;;;;;;3.80;3.50;;;;;;;;;;5050385;28;20220;-74
2023/06/08 09:48:23;;;;;;;4.10;3.65;;;;;;;;;;5070825;28;20228;-74
2023/06/08 09:50:48;;;;;;;3.85;3.55;;;;;;;;;;5067754;28;20185;-74
2023/06/08 09:53:13;;;;;;;3.80;3.50;;;;;;;;;;5062324;28;20186;-74
2023/06/08 09:55:39;;;;;;;4.00;3.65;;;;;;;;;;5049410;28;20178;-74
2023/06/08 09:58:04;;;;;;;4.22;3.80;;;;;;;;;;5053080;28;20206;-74
2023/06/08 10:00:30;;;;;;;4.80;4.13;;;;;;;;;;5047272;28;20195;-74
2023/06/08 10:03:19;;;;;;;4.75;3.72;;;;;;;;;;5061919;28;20181;-74
2023/06/08 10:05:45;;;;;;;3.88;3.58;;;;;;;;;;5052460;28;20232;-74
2023/06/08 10:08:12;;;;;;;4.03;3.70;;;;;;;;;;5064937;28;20177;-74
2023/06/08 10:10:38;;;;;;;4.20;3.90;;;;;;;;;;5068550;28;20218;-74
2023/06/08 10:13:07;;;;;;;3.60;3.30;;;;;;;;;;5067837;28;20260;-74
2023/06/08 10:15:32;;;;;;;4.20;3.80;;;;;;;;;;5048979;28;20185;-74
2023/06/08 10:17:58;;;;;;;4.18;3.75;;;;;;;;;;5067025;28;20241;-74
2023/06/08 10:20:24;;;;;;;4.95;4.05;;;;;;;;;;5055632;28;20174;-74
2023/06/08 10:22:49;;;;;;;4.07;3.78;;;;;;;;;;5046300;28;20227;-74
2023/06/08 10:25:16;;;;;;;4.10;3.72;;;;;;;;;;5061619;28;20253;-74
2023/06/08 10:27:51;;;;;;;4.43;3.97;;;;;;;;;;5065064;28;20173;-74
2023/06/08 10:30:30;;;;;;;4.43;4.03;;;;;;;;;;5051818;28;20212;-74
2023/06/08 10:33:16;;;;;;;5.30;4.03;;;;;;;;;;5050966;28;20169;-74
2023/06/08 10:35:43;;;;;;;6.55;4.90;;;;;;;;;;5059027;28;20269;-74
2023/06/08 10:38:14;;;;;;;4.43;4.00;;;;;;;;;;5068970;28;20186;-74
2023/06/08 10:40:46;;;;;;;4.82;4.43;;;;;;;;;;5075473;28;20162;-74
2023/06/08 10:43:12;;;;;;;4.38;4.07;;;;;;;;;;5067009;28;20182;-74
2023/06/08 10:45:39;;;;;;;5.55;3.92;;;;;;;;;;5047634;28;20178;-74
2023/06/08 10:48:09;;;;;;;4.25;3.58;;;;;;;;;;5050160;28;20173;-74
2023/06/08 10:50:37;;;;;;;4.47;4.07;;;;;;;;;;5066517;28;20192;-74
2023/06/08 10:53:03;;;;;;;4.47;3.60;;;;;;;;;;5068006;28;20183;-74
2023/06/08 10:55:29;;;;;;;4.32;4.03;;;;;;;;;;5053242;28;20269;-74
2023/06/08 10:57:55;;;;;;;5.13;4.40;;;;;;;;;;5065722;28;20209;-75
2023/06/08 11:00:28;;;;;;;4.22;3.92;;;;;;;;;;5065030;28;20210;-74
2023/06/08 11:02:53;;;;;;;4.95;4.55;;;;;;;;;;5068421;28;20200;-74
2023/06/08 11:05:19;;;;;;;5.10;4.15;;;;;;;;;;5060063;28;20229;-74
2023/06/08 11:07:45;;;;;;;4.80;4.40;;;;;;;;;;5060823;28;20238;-74
2023/06/08 11:10:10;;;;;;;4.70;4.30;;;;;;;;;;5062547;28;20216;-74
2023/06/08 11:12:35;;;;;;;5.07;4.57;;;;;;;;;;5047440;28;20184;-75
2023/06/08 11:15:01;;;;;;;5.07;4.57;;;;;;;;;;5046406;28;20169;-74
2023/06/08 11:17:26;;;;;;;4.78;4.35;;;;;;;;;;5041519;28;20182;-74
2023/06/08 11:19:51;;;;;;;4.50;4.20;;;;;;;;;;5074461;28;20239;-74
2023/06/08 11:22:17;;;;;;;5.10;4.60;;;;;;;;;;5073265;28;20181;-74
2023/06/08 11:24:43;;;;;;;5.22;4.40;;;;;;;;;;5063270;28;20173;-74
2023/06/08 11:27:14;;;;;;;5.57;4.43;;;;;;;;;;5071599;28;20188;-74
2023/06/08 11:29:40;;;;;;;4.90;4.55;;;;;;;;;;5048506;28;20205;-74
2023/06/08 11:32:09;;;;;;;5.32;4.57;;;;;;;;;;5041137;28;20343;-74
2023/06/08 11:34:36;;;;;;;4.50;4.20;;;;;;;;;;5071068;28;20182;-74
2023/06/08 11:37:01;;;;;;;5.68;4.65;;;;;;;;;;5051662;28;20272;-74
2023/06/08 11:39:32;;;;;;;5.35;4.50;;;;;;;;;;5066816;28;20296;-74
2023/06/08 11:41:57;;;;;;;5.18;4.75;;;;;;;;;;5049309;28;20288;-74
2023/06/08 11:44:25;;;;;;;23.88;6.80;;;;;;;;;;5060979;28;20331;-74
2023/06/08 11:46:51;;;;;;;5.00;4.60;;;;;;;;;;5063638;28;20173;-74
2023/06/08 11:49:16;;;;;;;5.10;4.70;;;;;;;;;;5045909;28;20225;-74
2023/06/08 11:51:46;;;;;;;4.97;4.53;;;;;;;;;;5062752;28;20177;-74
2023/06/08 11:54:11;;;;;;;5.18;4.78;;;;;;;;;;5065629;28;20185;-74
2023/06/08 11:56:36;;;;;;;4.72;4.35;;;;;;;;;;5065831;28;20203;-74
2023/06/08 11:59:02;;;;;;;5.05;4.63;;;;;;;;;;5050836;28;20563;-74
2023/06/08 12:01:28;;;;;;;4.78;4.32;;;;;;;;;;5067836;28;20212;-74
2023/06/08 12:03:53;;;;;;;5.53;4.47;;;;;;;;;;5065946;28;20197;-74
2023/06/08 12:06:24;;;;;;;5.05;4.57;;;;;;;;;;5072361;28;20185;-74
2023/06/08 12:08:50;;;;;;;4.88;4.47;;;;;;;;;;5060254;28;20208;-74
2023/06/08 12:11:15;;;;;;;4.85;4.53;;;;;;;;;;5052873;28;20200;-74
2023/06/08 12:13:44;;;;;;;7.93;5.05;;;;;;;;;;5052587;28;20181;-74
2023/06/08 12:16:09;;;;;;;5.05;4.43;;;;;;;;;;5051510;28;20182;-74
2023/06/08 12:18:38;;;;;;;6.20;4.82;;;;;;;;;;5056520;28;20190;-74
2023/06/08 12:21:08;;;;;;;5.00;4.60;;;;;;;;;;5048946;28;20230;-74
2023/06/08 12:23:33;;;;;;;5.03;4.63;;;;;;;;;;5069177;28;20240;-74
2023/06/08 12:25:58;;;;;;;9.13;5.03;;;;;;;;;;5054200;28;20233;-74
2023/06/08 12:28:24;;;;;;;5.38;4.63;;;;;;;;;;5073755;28;20223;-74
2023/06/08 12:30:50;;;;;;;12.75;5.80;;;;;;;;;;5049969;28;20189;-75
2023/06/08 12:33:18;;;;;;;34.15;7.82;;;;;;;;;;5073916;28;20185;-75
2023/06/08 12:35:44;;;;;;;20.90;6.25;;;;;;;;;;5069112;28;20173;-75
2023/06/08 12:38:09;;;;;;;53.67;10.68;;;;;;;;;;5050176;28;20174;-75
2023/06/08 12:40:34;;;;;;;32.83;7.25;;;;;;;;;;5054655;28;20177;-75
2023/06/08 12:43:00;;;;;;;5.97;5.15;;;;;;;;;;5054999;28;20180;-75
2023/06/08 12:45:25;;;;;;;5.68;5.18;;;;;;;;;;5071086;28;20173;-75
2023/06/08 12:47:50;;;;;;;5.35;4.85;;;;;;;;;;5063319;28;20184;-74
2023/06/08 12:50:22;;;;;;;6.70;5.40;;;;;;;;;;5051224;28;20209;-75
2023/06/08 12:52:47;;;;;;;5.82;5.25;;;;;;;;;;5056449;28;20260;-74
2023/06/08 12:55:12;;;;;;;5.50;5.00;;;;;;;;;;5047322;28;20268;-74
2023/06/08 12:57:38;;;;;;;6.05;5.10;;;;;;;;;;5073991;28;20193;-75
2023/06/08 13:00:04;;;;;;;4.97;4.57;;;;;;;;;;5077046;28;20217;-75
2023/06/08 13:02:30;;;;;;;11.50;6.65;;;;;;;;;;5074521;28;20232;-77
2023/06/08 13:04:55;;;;;;;15.30;7.03;;;;;;;;;;5052447;28;20252;-76
2023/06/08 13:07:21;;;;;;;11.70;6.35;;;;;;;;;;5054269;28;20207;-77
2023/06/08 13:09:47;;;;;;;12.15;7.40;;;;;;;;;;5069096;28;20193;-76
2023/06/08 13:12:12;;;;;;;8.45;5.22;;;;;;;;;;5051964;28;20196;-77
2023/06/08 13:14:37;;;;;;;10.27;6.47;;;;;;;;;;5070027;28;20201;-76
2023/06/08 13:17:02;;;;;;;7.53;5.63;;;;;;;;;;5075290;28;20259;-76
2023/06/08 13:19:28;;;;;;;5.88;5.28;;;;;;;;;;5064806;28;20969;-76
2023/06/08 13:21:53;;;;;;;7.67;5.60;;;;;;;;;;5066783;28;20427;-76
2023/06/08 13:24:20;;;;;;;7.30;5.63;;;;;;;;;;5046029;28;20179;-76
2023/06/08 13:26:47;;;;;;;6.53;5.97;;;;;;;;;;5045309;28;20176;-76
2023/06/08 13:29:12;;;;;;;6.93;5.10;;;;;;;;;;5066552;28;20232;-76
2023/06/08 13:31:39;;;;;;;6.57;5.63;;;;;;;;;;5077479;28;20225;-76
2023/06/08 13:34:05;;;;;;;7.23;5.67;;;;;;;;;;5055607;28;20253;-76
2023/06/08 13:36:30;;;;;;;6.43;5.87;;;;;;;;;;5052821;28;20260;-76
2023/06/08 13:38:56;;;;;;;9.60;6.47;;;;;;;;;;5053814;28;20195;-76
2023/06/08 13:41:21;;;;;;;6.93;6.20;;;;;;;;;;5055079;28;20180;-76
2023/06/08 13:43:46;;;;;;;8.37;7.20;;;;;;;;;;5052528;28;20183;-78
2023/06/08 13:46:12;;;;;;;6.40;5.50;;;;;;;;;;5055103;28;20191;-78
2023/06/08 13:48:37;;;;;;;7.30;6.00;;;;;;;;;;5061833;28;20306;-78
2023/06/08 13:51:03;;;;;;;6.60;5.23;;;;;;;;;;5063846;28;20256;-78
2023/06/08 13:53:28;;;;;;;6.73;6.13;;;;;;;;;;5053949;28;20188;-78
2023/06/08 13:55:53;;;;;;;5.57;5.07;;;;;;;;;;5076303;28;20175;-78
2023/06/08 13:58:19;;;;;;;5.23;4.83;;;;;;;;;;5052225;28;20229;-78
2023/06/08 14:00:45;;;;;;;5.40;4.90;;;;;;;;;;5062388;28;20235;-78
2023/06/08 14:03:10;;;;;;;5.37;4.87;;;;;;;;;;5066549;28;20204;-78
2023/06/08 14:05:36;;;;;;;5.20;4.80;;;;;;;;;;5035932;28;20223;-78
2023/06/08 14:08:01;;;;;;;4.83;4.43;;;;;;;;;;5046714;28;20167;-78
2023/06/08 14:10:26;;;;;;;5.10;4.57;;;;;;;;;;5048068;28;20207;-78
2023/06/08 14:12:52;;;;;;;5.30;4.67;;;;;;;;;;5029746;28;20180;-78
2023/06/08 14:15:17;;;;;;;4.70;4.30;;;;;;;;;;5053172;28;20171;-78
2023/06/08 14:17:43;;;;;;;4.40;3.77;;;;;;;;;;5055494;28;20257;-78
2023/06/08 14:20:09;;;;;;;7.93;4.17;;;;;;;;;;5053468;28;20188;-78
2023/06/08 14:22:34;;;;;;;4.57;4.17;;;;;;;;;;5053403;28;20198;-78
2023/06/08 14:25:00;;;;;;;4.40;3.70;;;;;;;;;;5042576;28;20193;-78
2023/06/08 14:27:25;;;;;;;3.60;3.30;;;;;;;;;;5037937;28;20185;-78
2023/06/08 14:29:50;;;;;;;3.23;3.03;;;;;;;;;;5036629;28;20211;-78
2023/06/08 14:32:16;;;;;;;3.90;3.60;;;;;;;;;;5032846;28;20172;-78
2023/06/08 14:34:41;;;;;;;4.57;4.07;;;;;;;;;;5032669;28;20322;-78
2023/06/08 14:37:06;;;;;;;5.97;4.70;;;;;;;;;;5035572;28;20272;-78
2023/06/08 14:39:35;;;;;;;7.70;5.03;;;;;;;;;;5048832;28;20179;-77